PHTO

Hilo International Airport

Hilo, Hawaii, USA
PHTO 190520Z 1906/2006 24005KT P6SM VCSH SCT020 BKN035 FM192000 08008KT P6SM VCSH SCT020 BKN035 FM200500 VRB05KT P6SM VCSH SCT020 BKN035
Issued Valid From Valid To
Oct-19 @ 05:20 UTC
(4 hours ago)
Oct-19 @ 06:00 UTC
(3 hours ago)
Oct-20 @ 06:00 UTC
(in 21 hours)
Oct-19 @ 06:00 to Oct-19 @ 20:00
PHTO 190520Z 1906/2006 24005KT P6SM VCSH SCT020 BKN035
Wind Visibility Clouds
240° at 5 knots Greater than 6 miles
  • Scattered at 2,000' AGL
  • Broken at 3,500' AGL
From Oct-19 @ 20:00 to Oct-20 @ 05:00
FM192000 08008KT P6SM VCSH SCT020 BKN035
Wind Visibility Clouds
80° at 8 knots Greater than 6 miles
  • Scattered at 2,000' AGL
  • Broken at 3,500' AGL
From Oct-20 @ 05:00 to Oct-20 @ 06:00
FM200500 VRB05KT P6SM VCSH SCT020 BKN035
Wind Visibility Clouds
Variable at 5 knots Greater than 6 miles
  • Scattered at 2,000' AGL
  • Broken at 3,500' AGL
PHTO 190520Z 1906/2006 24005KT P6SM VCSH SCT020 BKN035 FM192000 08008KT P6SM VCSH SCT020 BKN035 FM200500 VRB05KT P6SM VCSH SCT020 BKN035
Issued Oct-19 @ 05:20 UTC
(4 hours ago)
Valid From Oct-19 @ 06:00 UTC
(3 hours ago)
Valid To Oct-20 @ 06:00 UTC
(in 21 hours)
Oct-19 @ 06:00 - Oct-19 @ 20:00
Wind Visibility
240° at 5 knots Greater than 6 miles
Clouds
  • Scattered at 2,000' AGL
  • Broken at 3,500' AGL
From Oct-19 @ 20:00 - Oct-20 @ 05:00
Wind Visibility
80° at 8 knots Greater than 6 miles
Clouds
  • Scattered at 2,000' AGL
  • Broken at 3,500' AGL
From Oct-20 @ 05:00 - Oct-20 @ 06:00
Wind Visibility
Variable at 5 knots Greater than 6 miles
Clouds
  • Scattered at 2,000' AGL
  • Broken at 3,500' AGL